Time;durP1;ratioP1;P1;durP2;ratioP2;P2;SDS_P1;SDS_P2;PMS_P1;PMS_P2;Temp;Humidity;BMP_temperature;BMP_pressure;BME280_temperature;BME280_humidity;BME280_pressure;Samples;Min_cycle;Max_cycle;Signal;HPM_P1;HPM_P2
2024/01/31 00:01:01;;;;;;;5.93;2.80;;;3.20;99.90;;;;;;6341426;22;20008;-85
2024/01/31 00:03:27;;;;;;;5.45;2.70;;;3.10;99.90;;;;;;6340968;22;20044;-85
2024/01/31 00:05:53;;;;;;;12.52;3.00;;;3.10;99.90;;;;;;6341630;22;20013;-86
2024/01/31 00:08:18;;;;;;;5.85;2.60;;;3.00;99.90;;;;;;6341660;22;20437;-85
2024/01/31 00:10:45;;;;;;;12.68;3.55;;;3.00;99.90;;;;;;6341899;22;20086;-84
2024/01/31 00:13:12;;;;;;;9.50;3.13;;;3.00;99.90;;;;;;6342003;22;20002;-85
2024/01/31 00:15:38;;;;;;;8.65;3.00;;;3.00;99.90;;;;;;6341286;22;20009;-86
2024/01/31 00:18:03;;;;;;;5.85;2.78;;;2.90;99.90;;;;;;6341855;22;20002;-85
2024/01/31 00:20:30;;;;;;;11.40;2.65;;;2.90;99.90;;;;;;6341925;22;19998;-85
2024/01/31 00:22:56;;;;;;;8.85;2.70;;;3.00;99.90;;;;;;6341584;22;20006;-85
2024/01/31 00:25:21;;;;;;;12.60;2.90;;;3.00;99.90;;;;;;6341931;22;20075;-85
2024/01/31 00:27:47;;;;;;;8.43;2.65;;;3.00;99.90;;;;;;6341311;22;20018;-85
2024/01/31 00:30:13;;;;;;;13.70;2.85;;;3.00;99.90;;;;;;6341612;22;20002;-85
2024/01/31 00:32:39;;;;;;;6.43;2.55;;;2.90;99.90;;;;;;6340972;22;20084;-84
2024/01/31 00:35:05;;;;;;;11.82;3.15;;;2.90;99.90;;;;;;6340952;22;20067;-85
2024/01/31 00:37:31;;;;;;;6.43;2.22;;;2.90;99.90;;;;;;6340680;22;20009;-85
2024/01/31 00:39:57;;;;;;;6.68;2.83;;;2.90;99.90;;;;;;6341250;22;20443;-84
2024/01/31 00:42:22;;;;;;;12.65;3.60;;;2.90;99.90;;;;;;6340910;22;20006;-86
2024/01/31 00:44:48;;;;;;;10.82;3.95;;;3.00;99.90;;;;;;6341999;22;20021;-85
2024/01/31 00:47:14;;;;;;;14.82;3.65;;;3.00;99.90;;;;;;6341457;22;20014;-85
2024/01/31 00:49:39;;;;;;;11.07;3.70;;;3.00;99.90;;;;;;6340453;22;20302;-85
2024/01/31 00:52:05;;;;;;;7.05;3.53;;;3.00;99.90;;;;;;6341624;22;20034;-84
2024/01/31 00:54:31;;;;;;;9.10;3.90;;;3.10;99.90;;;;;;6342691;22;20066;-85
2024/01/31 00:56:57;;;;;;;14.48;3.40;;;3.00;99.90;;;;;;6342177;22;20006;-83
2024/01/31 00:59:24;;;;;;;8.13;3.78;;;3.00;99.90;;;;;;6342415;22;20048;-85
2024/01/31 01:01:50;;;;;;;6.20;2.38;;;3.00;99.90;;;;;;6341686;22;20011;-85
2024/01/31 01:04:16;;;;;;;4.63;2.42;;;3.00;99.90;;;;;;6341910;22;20010;-86
2024/01/31 01:06:41;;;;;;;7.00;3.00;;;2.90;99.90;;;;;;6371557;22;20021;-84
2024/01/31 01:09:08;;;;;;;6.82;3.45;;;2.90;99.90;;;;;;6371382;22;20081;-85
2024/01/31 01:11:34;;;;;;;16.42;3.83;;;2.90;99.90;;;;;;6343415;22;20095;-85
2024/01/31 01:13:59;;;;;;;8.05;3.80;;;2.80;99.90;;;;;;6343719;22;20375;-85
2024/01/31 01:16:29;;;;;;;13.57;3.58;;;2.80;99.90;;;;;;6343484;22;20085;-85
2024/01/31 01:18:55;;;;;;;9.85;4.00;;;2.80;99.90;;;;;;6343151;22;20335;-86
2024/01/31 01:21:21;;;;;;;14.80;3.63;;;2.80;99.90;;;;;;6343535;22;20085;-85
2024/01/31 01:23:47;;;;;;;9.10;3.15;;;2.80;99.90;;;;;;6317025;22;20018;-85
2024/01/31 01:26:13;;;;;;;7.88;2.88;;;2.70;99.90;;;;;;6342356;22;20089;-85
2024/01/31 01:28:38;;;;;;;6.43;2.78;;;2.70;99.90;;;;;;6342708;22;20022;-86
2024/01/31 01:31:04;;;;;;;5.53;3.13;;;2.60;99.90;;;;;;6343272;22;20026;-85
2024/01/31 01:33:30;;;;;;;14.23;3.65;;;2.50;99.90;;;;;;6343107;22;20030;-86
2024/01/31 01:35:55;;;;;;;5.78;3.00;;;2.50;99.90;;;;;;6342252;22;20006;-85
2024/01/31 01:38:22;;;;;;;12.98;3.80;;;2.50;99.90;;;;;;6343366;22;20010;-85
2024/01/31 01:40:49;;;;;;;12.02;2.92;;;2.50;99.90;;;;;;6317335;22;20063;-84
2024/01/31 01:43:17;;;;;;;14.55;3.90;;;2.40;99.90;;;;;;6343269;22;20006;-85
2024/01/31 01:45:43;;;;;;;10.38;2.47;;;2.40;99.90;;;;;;6370814;22;20251;-86
2024/01/31 01:48:15;;;;;;;10.63;3.78;;;2.40;99.90;;;;;;6370577;22;20044;-86
2024/01/31 01:50:42;;;;;;;8.88;3.30;;;2.40;99.90;;;;;;6343385;22;20315;-86
2024/01/31 01:53:08;;;;;;;7.97;3.30;;;2.40;99.90;;;;;;6343183;22;20016;-84
2024/01/31 01:55:34;;;;;;;6.68;2.65;;;2.40;99.90;;;;;;6370935;22;19999;-86
2024/01/31 01:58:01;;;;;;;10.98;3.10;;;2.40;99.90;;;;;;6370535;22;20009;-84
2024/01/31 02:00:32;;;;;;;10.93;2.90;;;2.40;99.90;;;;;;6342078;22;20393;-87
2024/01/31 02:02:58;;;;;;;7.78;2.92;;;2.40;99.90;;;;;;6342253;22;20006;-84
2024/01/31 02:05:25;;;;;;;9.82;3.70;;;2.40;99.90;;;;;;6342179;22;20326;-85
2024/01/31 02:07:51;;;;;;;9.90;2.88;;;2.40;99.90;;;;;;6342298;22;20101;-86
2024/01/31 02:10:17;;;;;;;7.53;2.75;;;2.40;99.90;;;;;;6342346;22;20029;-85
2024/01/31 02:12:43;;;;;;;7.85;3.10;;;2.40;99.90;;;;;;6370699;22;20329;-86
2024/01/31 02:15:10;;;;;;;10.43;3.17;;;2.50;99.90;;;;;;6342011;22;20003;-86
2024/01/31 02:17:35;;;;;;;15.70;4.75;;;2.50;99.90;;;;;;6370417;22;19994;-86
2024/01/31 02:20:03;;;;;;;9.75;3.22;;;2.50;99.90;;;;;;6370572;22;20065;-86
2024/01/31 02:22:29;;;;;;;6.05;2.47;;;2.50;99.90;;;;;;6342368;22;20006;-84
2024/01/31 02:24:54;;;;;;;6.63;2.70;;;2.50;99.90;;;;;;6342076;22;20072;-86
2024/01/31 02:27:20;;;;;;;7.18;3.60;;;2.50;99.90;;;;;;6341786;22;20014;-86
2024/01/31 02:29:48;;;;;;;7.40;2.92;;;2.50;99.90;;;;;;6370179;22;20421;-85
2024/01/31 02:32:14;;;;;;;10.38;3.58;;;2.50;99.90;;;;;;6316341;22;20014;-86
2024/01/31 02:34:39;;;;;;;10.20;3.05;;;2.50;99.90;;;;;;6342659;22;20338;-86
2024/01/31 02:37:05;;;;;;;9.77;3.03;;;2.50;99.90;;;;;;6316392;22;20079;-86
2024/01/31 02:39:31;;;;;;;15.30;3.30;;;2.50;99.90;;;;;;6342042;22;20085;-86
2024/01/31 02:41:57;;;;;;;9.82;3.78;;;2.40;99.90;;;;;;6342816;22;20441;-86
2024/01/31 02:44:24;;;;;;;14.70;3.10;;;2.40;99.90;;;;;;6342611;22;20089;-86
2024/01/31 02:46:50;;;;;;;12.32;2.40;;;2.40;99.90;;;;;;6342272;22;20025;-86
2024/01/31 02:49:17;;;;;;;11.48;2.95;;;2.40;99.90;;;;;;6342136;22;20380;-86
2024/01/31 02:51:43;;;;;;;9.30;2.67;;;2.40;99.90;;;;;;6343629;22;20006;-86
2024/01/31 02:54:08;;;;;;;12.27;2.95;;;2.40;99.90;;;;;;6370964;22;19999;-86
2024/01/31 02:56:35;;;;;;;10.18;2.53;;;2.30;99.90;;;;;;6343098;22;20557;-85
2024/01/31 02:59:00;;;;;;;6.32;2.40;;;2.40;99.90;;;;;;6370161;22;20059;-86
2024/01/31 03:01:26;;;;;;;8.40;3.00;;;2.40;99.90;;;;;;6341955;22;20014;-85
2024/01/31 03:03:52;;;;;;;7.43;2.80;;;2.30;99.90;;;;;;6369424;22;20074;-85
2024/01/31 03:06:18;;;;;;;11.40;2.72;;;2.30;99.90;;;;;;6341777;22;20087;-85
2024/01/31 03:08:44;;;;;;;10.45;2.65;;;2.30;99.90;;;;;;6341357;22;20498;-85
2024/01/31 03:11:10;;;;;;;12.50;2.80;;;2.20;99.90;;;;;;6369456;22;20014;-85
2024/01/31 03:13:35;;;;;;;6.75;2.70;;;2.20;99.90;;;;;;6369423;22;20010;-86
2024/01/31 03:16:01;;;;;;;11.00;2.20;;;2.20;99.90;;;;;;6341163;22;20007;-85
2024/01/31 03:18:26;;;;;;;17.02;2.92;;;2.20;99.90;;;;;;6341807;22;20093;-86
2024/01/31 03:20:54;;;;;;;19.63;3.70;;;2.20;99.90;;;;;;6341461;22;20028;-85
2024/01/31 03:23:20;;;;;;;8.25;2.58;;;2.10;99.90;;;;;;6316240;22;20030;-85
2024/01/31 03:25:46;;;;;;;11.02;3.03;;;2.10;99.90;;;;;;6341071;22;20014;-85
2024/01/31 03:28:12;;;;;;;15.40;2.83;;;2.10;99.90;;;;;;6339791;22;20002;-87
2024/01/31 03:30:38;;;;;;;5.68;2.08;;;2.10;99.90;;;;;;6341301;22;20025;-86
2024/01/31 03:33:05;;;;;;;4.82;2.40;;;2.10;99.90;;;;;;6341692;22;20066;-86
2024/01/31 03:35:30;;;;;;;6.60;2.60;;;2.10;99.90;;;;;;6341304;22;20086;-87
2024/01/31 03:37:56;;;;;;;15.30;2.83;;;2.10;99.90;;;;;;6341228;22;20030;-85
2024/01/31 03:40:22;;;;;;;8.00;2.10;;;2.10;99.90;;;;;;6341280;22;20505;-85
2024/01/31 03:42:47;;;;;;;9.80;2.42;;;2.00;99.90;;;;;;6341249;22;19994;-86
2024/01/31 03:45:14;;;;;;;8.48;2.60;;;2.00;99.90;;;;;;6341321;22;20010;-86
2024/01/31 03:47:40;;;;;;;11.85;2.50;;;2.00;99.90;;;;;;6341158;22;20025;-85
2024/01/31 03:50:06;;;;;;;12.15;2.90;;;2.00;99.90;;;;;;6340797;22;20003;-85
2024/01/31 03:52:32;;;;;;;9.45;2.13;;;2.00;99.90;;;;;;6341276;22;20039;-86
2024/01/31 03:54:58;;;;;;;6.32;1.88;;;2.00;99.90;;;;;;6341174;22;20002;-85
2024/01/31 03:57:24;;;;;;;10.02;2.03;;;2.00;99.90;;;;;;6340919;22;20045;-85
2024/01/31 03:59:49;;;;;;;10.40;2.03;;;2.00;99.90;;;;;;6368715;22;19998;-84
2024/01/31 04:02:16;;;;;;;9.43;1.60;;;2.00;99.90;;;;;;6341084;22;20006;-84
2024/01/31 04:04:43;;;;;;;6.78;1.67;;;2.00;99.90;;;;;;6341036;22;20006;-85
2024/01/31 04:07:08;;;;;;;7.10;1.92;;;2.00;99.90;;;;;;6369118;22;20046;-85
2024/01/31 04:09:34;;;;;;;6.05;2.65;;;2.00;99.90;;;;;;6340485;22;20002;-84
2024/01/31 04:11:59;;;;;;;8.35;2.10;;;2.10;99.90;;;;;;6341061;22;20007;-84
2024/01/31 04:14:25;;;;;;;6.80;1.65;;;2.10;99.90;;;;;;6342054;22;20032;-84
2024/01/31 04:16:51;;;;;;;12.20;2.03;;;2.20;99.90;;;;;;6341795;22;20009;-83
2024/01/31 04:19:16;;;;;;;6.38;1.80;;;2.20;99.90;;;;;;6341206;22;20006;-86
2024/01/31 04:21:42;;;;;;;11.07;2.00;;;2.20;99.90;;;;;;6368814;22;20002;-84
2024/01/31 04:24:08;;;;;;;7.00;2.00;;;2.20;99.90;;;;;;6341633;22;20329;-86
2024/01/31 04:26:33;;;;;;;8.10;2.17;;;2.20;99.90;;;;;;6341718;22;20010;-84
2024/01/31 04:28:59;;;;;;;17.27;2.38;;;2.20;99.90;;;;;;6342135;22;20333;-86
2024/01/31 04:31:25;;;;;;;5.38;1.85;;;2.20;99.90;;;;;;6341589;22;20013;-84
2024/01/31 04:33:50;;;;;;;11.57;1.75;;;2.20;99.90;;;;;;6341377;22;20503;-87
2024/01/31 04:36:16;;;;;;;6.82;1.60;;;2.20;99.90;;;;;;6341447;22;20345;-84
2024/01/31 04:38:42;;;;;;;5.45;1.60;;;2.20;99.90;;;;;;6341468;22;20037;-84
2024/01/31 04:41:07;;;;;;;5.07;1.70;;;2.20;99.90;;;;;;6342984;22;20381;-85
2024/01/31 04:43:33;;;;;;;13.40;2.75;;;2.20;99.90;;;;;;6343387;22;20002;-85
2024/01/31 04:45:59;;;;;;;15.55;1.60;;;2.20;99.90;;;;;;6343261;22;20103;-85
2024/01/31 04:48:25;;;;;;;2.95;1.27;;;2.20;99.90;;;;;;6343885;22;20007;-84
2024/01/31 04:50:51;;;;;;;15.35;2.08;;;2.20;99.90;;;;;;6343919;22;20452;-87
2024/01/31 04:53:17;;;;;;;8.07;2.45;;;2.20;99.90;;;;;;6343673;22;20051;-86
2024/01/31 04:55:44;;;;;;;6.50;1.58;;;2.20;99.90;;;;;;6343617;22;20391;-85
2024/01/31 04:58:10;;;;;;;11.20;1.50;;;2.20;99.90;;;;;;6343655;22;20059;-85
2024/01/31 05:00:36;;;;;;;8.35;1.70;;;2.20;99.90;;;;;;6342629;22;20007;-85
2024/01/31 05:03:02;;;;;;;7.85;1.90;;;2.20;99.90;;;;;;6370596;22;20006;-84
2024/01/31 05:05:27;;;;;;;4.28;1.55;;;2.30;99.90;;;;;;6343226;22;20001;-86
2024/01/31 05:07:53;;;;;;;6.35;1.15;;;2.20;99.90;;;;;;6370882;22;20014;-84
2024/01/31 05:10:20;;;;;;;12.45;2.15;;;2.30;99.90;;;;;;6342412;22;20029;-87
2024/01/31 05:12:45;;;;;;;5.60;1.65;;;2.30;99.90;;;;;;6343336;22;20006;-85
2024/01/31 05:15:11;;;;;;;5.93;1.70;;;2.30;99.90;;;;;;6371339;22;20029;-85
2024/01/31 05:17:38;;;;;;;14.07;3.55;;;2.30;99.90;;;;;;6342848;22;20365;-86
2024/01/31 05:20:04;;;;;;;4.45;1.58;;;2.30;99.90;;;;;;6316974;22;20011;-86
2024/01/31 05:22:30;;;;;;;5.20;1.67;;;2.30;99.90;;;;;;6342613;22;20558;-85
2024/01/31 05:24:56;;;;;;;6.47;1.85;;;2.40;99.90;;;;;;6342597;22;20055;-86
2024/01/31 05:27:22;;;;;;;13.27;1.90;;;2.40;99.90;;;;;;6342893;22;20345;-86
2024/01/31 05:29:48;;;;;;;8.55;1.50;;;2.40;99.90;;;;;;6370634;22;20022;-86
2024/01/31 05:32:14;;;;;;;6.97;1.70;;;2.40;99.90;;;;;;6342206;22;20006;-85
2024/01/31 05:34:44;;;;;;;6.82;1.73;;;2.50;99.90;;;;;;6342617;22;20428;-85
2024/01/31 05:37:09;;;;;;;8.18;2.45;;;2.50;99.90;;;;;;6342454;22;20609;-84
2024/01/31 05:39:35;;;;;;;10.65;1.80;;;2.50;99.90;;;;;;6342582;22;20002;-85
2024/01/31 05:42:02;;;;;;;11.57;2.10;;;2.60;99.90;;;;;;6342629;22;20455;-86
2024/01/31 05:44:27;;;;;;;5.18;1.23;;;2.60;99.90;;;;;;6342383;22;20097;-86
2024/01/31 05:46:53;;;;;;;5.00;1.60;;;2.60;99.90;;;;;;6369924;22;20046;-85
2024/01/31 05:49:18;;;;;;;4.32;1.60;;;2.70;99.90;;;;;;6342264;22;20006;-86
2024/01/31 05:51:44;;;;;;;6.00;1.60;;;2.70;99.90;;;;;;6369905;22;20037;-86
2024/01/31 05:54:10;;;;;;;8.07;1.67;;;2.70;99.90;;;;;;6370344;22;20452;-85
2024/01/31 05:56:37;;;;;;;14.10;1.92;;;2.70;99.90;;;;;;6342159;22;20011;-87
2024/01/31 05:59:02;;;;;;;6.40;1.58;;;2.80;99.90;;;;;;6342058;22;20010;-86
2024/01/31 06:01:28;;;;;;;9.25;2.30;;;2.90;99.90;;;;;;6342216;22;20010;-86
2024/01/31 06:03:54;;;;;;;4.60;1.55;;;2.90;99.90;;;;;;6339893;22;20003;-86
2024/01/31 06:06:19;;;;;;;10.30;1.70;;;3.00;99.90;;;;;;6340868;22;20002;-86
2024/01/31 06:08:45;;;;;;;9.27;2.50;;;3.00;99.90;;;;;;6369432;22;20002;-86
2024/01/31 06:11:11;;;;;;;4.45;1.70;;;3.00;99.90;;;;;;6369994;22;20077;-86
2024/01/31 06:13:37;;;;;;;12.52;2.03;;;3.00;99.90;;;;;;6341923;22;20334;-86
2024/01/31 06:16:03;;;;;;;6.82;2.15;;;3.00;99.90;;;;;;6341365;22;20006;-86
2024/01/31 06:18:33;;;;;;;6.38;1.50;;;3.00;99.90;;;;;;6342356;22;20456;-85
2024/01/31 06:21:02;;;;;;;4.15;1.40;;;3.00;99.90;;;;;;6342275;22;20468;-86
2024/01/31 06:23:28;;;;;;;5.22;1.40;;;2.90;99.90;;;;;;6370254;22;20002;-86
2024/01/31 06:25:54;;;;;;;6.80;1.58;;;2.90;99.90;;;;;;6342383;22;20089;-85
2024/01/31 06:28:20;;;;;;;6.88;1.40;;;2.90;99.90;;;;;;6370799;22;20033;-86
2024/01/31 06:30:53;;;;;;;7.20;1.30;;;2.90;99.90;;;;;;6342759;22;20032;-85
2024/01/31 06:33:23;;;;;;;16.17;2.92;;;2.90;99.90;;;;;;6341946;22;20002;-85
2024/01/31 06:35:49;;;;;;;5.00;1.65;;;2.90;99.90;;;;;;6370253;22;20005;-85
2024/01/31 06:38:15;;;;;;;7.50;1.95;;;2.90;99.90;;;;;;6342319;22;20033;-84
2024/01/31 06:40:40;;;;;;;7.90;1.38;;;2.90;99.90;;;;;;6342467;22;20006;-86
2024/01/31 06:43:06;;;;;;;8.32;1.50;;;2.90;99.90;;;;;;6370724;22;20013;-85
2024/01/31 06:45:32;;;;;;;7.95;1.67;;;2.90;99.90;;;;;;6371166;22;19995;-84
2024/01/31 06:47:58;;;;;;;13.00;1.88;;;2.90;99.90;;;;;;6370122;22;20010;-84
2024/01/31 06:50:23;;;;;;;6.68;1.50;;;2.90;99.90;;;;;;6342484;22;20012;-85
2024/01/31 06:52:49;;;;;;;6.38;1.48;;;2.90;99.90;;;;;;6342146;22;20006;-85
2024/01/31 06:55:15;;;;;;;7.70;1.33;;;2.80;99.90;;;;;;6341854;22;20051;-85
2024/01/31 06:57:41;;;;;;;5.20;1.60;;;2.80;99.90;;;;;;6342092;22;20452;-85
2024/01/31 07:00:10;;;;;;;7.43;1.95;;;2.90;99.90;;;;;;6341759;22;20097;-84
2024/01/31 07:02:36;;;;;;;7.75;1.80;;;2.90;99.90;;;;;;6340940;22;20042;-84
2024/01/31 07:05:02;;;;;;;6.72;1.80;;;2.90;99.90;;;;;;6341505;22;20352;-84
2024/01/31 07:07:27;;;;;;;6.53;1.33;;;2.90;99.90;;;;;;6368932;22;20010;-84
2024/01/31 07:09:53;;;;;;;3.90;1.50;;;2.90;99.90;;;;;;6341154;22;20003;-85
2024/01/31 07:12:19;;;;;;;8.15;2.67;;;2.90;99.90;;;;;;6341536;22;20002;-85
2024/01/31 07:14:44;;;;;;;6.30;1.50;;;3.00;99.90;;;;;;6369217;22;20029;-85
2024/01/31 07:17:10;;;;;;;4.95;1.05;;;3.00;99.90;;;;;;6340940;22;20026;-85
2024/01/31 07:19:44;;;;;;;9.77;1.63;;;3.00;99.90;;;;;;6341334;22;20448;-84
2024/01/31 07:22:10;;;;;;;4.60;1.17;;;3.00;99.90;;;;;;6341217;22;20037;-84
2024/01/31 07:24:36;;;;;;;5.45;1.60;;;3.00;99.90;;;;;;6369441;22;20006;-84
2024/01/31 07:27:02;;;;;;;7.13;1.50;;;3.00;99.90;;;;;;6340862;22;20014;-84
2024/01/31 07:29:29;;;;;;;7.68;1.58;;;3.00;99.90;;;;;;6342094;22;20002;-85
2024/01/31 07:31:55;;;;;;;5.68;1.20;;;3.00;99.90;;;;;;6341668;22;20029;-86
2024/01/31 07:34:21;;;;;;;5.88;1.83;;;3.00;99.90;;;;;;6341530;22;20006;-87
2024/01/31 07:36:47;;;;;;;11.32;1.50;;;3.10;99.90;;;;;;6341662;22;20013;-86
2024/01/31 07:39:14;;;;;;;8.43;1.40;;;3.10;99.90;;;;;;6342668;22;20021;-85
2024/01/31 07:41:40;;;;;;;6.05;1.50;;;3.10;99.90;;;;;;6370785;22;20013;-85
2024/01/31 07:44:06;;;;;;;8.52;1.63;;;3.10;99.90;;;;;;6341892;22;20089;-85
2024/01/31 07:46:31;;;;;;;8.48;2.08;;;3.10;99.90;;;;;;6340387;22;20021;-84
2024/01/31 07:48:57;;;;;;;7.20;1.60;;;3.10;99.90;;;;;;6369782;22;19999;-84
2024/01/31 07:51:23;;;;;;;12.70;1.38;;;3.10;99.90;;;;;;6341299;22;20434;-85
2024/01/31 07:53:49;;;;;;;7.68;2.00;;;3.20;99.90;;;;;;6341578;22;20103;-84
2024/01/31 07:56:15;;;;;;;8.13;1.83;;;3.20;99.90;;;;;;6341313;22;20002;-85
2024/01/31 07:58:41;;;;;;;6.55;1.42;;;3.20;99.90;;;;;;6341494;22;20500;-85
2024/01/31 08:01:06;;;;;;;8.35;1.48;;;3.20;99.90;;;;;;6341239;22;20337;-84
2024/01/31 08:03:34;;;;;;;3.45;1.20;;;3.20;99.90;;;;;;6341578;22;20002;-84
2024/01/31 08:06:00;;;;;;;7.65;2.17;;;3.20;99.90;;;;;;6341131;22;20006;-84
2024/01/31 08:08:27;;;;;;;6.70;1.50;;;3.20;99.90;;;;;;6341336;22;20006;-87
2024/01/31 08:10:52;;;;;;;5.07;1.73;;;3.20;99.90;;;;;;6340835;22;20368;-85
2024/01/31 08:13:18;;;;;;;6.45;2.05;;;3.20;99.90;;;;;;6369024;22;19999;-85
2024/01/31 08:15:44;;;;;;;6.85;2.03;;;3.20;99.90;;;;;;6340285;22;19998;-86
2024/01/31 08:18:10;;;;;;;7.72;2.30;;;3.20;99.90;;;;;;6340964;22;20063;-85
2024/01/31 08:20:35;;;;;;;8.15;2.05;;;3.20;99.90;;;;;;6340359;22;19999;-86
2024/01/31 08:23:01;;;;;;;16.33;2.30;;;3.20;99.90;;;;;;6368733;22;20437;-86
2024/01/31 08:25:26;;;;;;;8.95;2.38;;;3.20;99.90;;;;;;6340803;22;20041;-84
2024/01/31 08:27:53;;;;;;;5.68;1.33;;;3.20;99.90;;;;;;6340240;22;20055;-85
2024/01/31 08:30:21;;;;;;;8.90;2.75;;;3.20;99.90;;;;;;6340699;22;20085;-86
2024/01/31 08:32:46;;;;;;;12.82;3.80;;;3.20;99.90;;;;;;6340750;22;20438;-85
2024/01/31 08:35:12;;;;;;;12.70;2.60;;;3.20;99.90;;;;;;6340331;22;20025;-85
2024/01/31 08:37:38;;;;;;;9.02;2.70;;;3.20;99.90;;;;;;6341018;22;20077;-84
2024/01/31 08:40:05;;;;;;;5.10;2.22;;;3.20;99.90;;;;;;6340298;22;20006;-85
2024/01/31 08:42:33;;;;;;;10.68;1.92;;;3.20;99.90;;;;;;6340624;22;20005;-85
2024/01/31 08:44:59;;;;;;;8.80;2.72;;;3.30;99.90;;;;;;6341323;22;20006;-84
2024/01/31 08:47:24;;;;;;;9.98;2.10;;;3.30;99.90;;;;;;6340551;22;20342;-84
2024/01/31 08:49:50;;;;;;;11.02;2.42;;;3.30;99.90;;;;;;6341415;22;20485;-85
2024/01/31 08:52:16;;;;;;;7.05;2.10;;;3.30;99.90;;;;;;6338179;22;20010;-85
2024/01/31 08:54:42;;;;;;;9.70;2.20;;;3.30;99.90;;;;;;6335916;22;19998;-85
2024/01/31 08:57:07;;;;;;;12.13;3.45;;;3.40;99.90;;;;;;6339197;22;20010;-85
2024/01/31 08:59:33;;;;;;;16.60;2.53;;;3.40;99.90;;;;;;6338772;22;19998;-85
2024/01/31 09:01:59;;;;;;;8.88;2.05;;;3.40;99.90;;;;;;6338111;22;20060;-86
2024/01/31 09:04:24;;;;;;;6.43;2.05;;;3.40;99.90;;;;;;6340255;22;20009;-84
2024/01/31 09:06:50;;;;;;;7.57;2.17;;;3.40;99.90;;;;;;6340489;22;20446;-84
2024/01/31 09:09:16;;;;;;;11.80;2.25;;;3.50;99.90;;;;;;6340735;22;20005;-85
2024/01/31 09:11:41;;;;;;;8.52;2.17;;;3.50;99.90;;;;;;6340798;22;20002;-85
2024/01/31 09:14:07;;;;;;;15.07;3.00;;;3.50;99.90;;;;;;6340363;22;20094;-84
2024/01/31 09:16:35;;;;;;;10.07;2.75;;;3.50;99.90;;;;;;6340421;22;19999;-85
2024/01/31 09:19:03;;;;;;;14.20;2.70;;;3.50;99.90;;;;;;6367964;22;20030;-84
2024/01/31 09:21:30;;;;;;;7.65;2.13;;;3.50;99.90;;;;;;6339466;22;20013;-84
2024/01/31 09:23:56;;;;;;;6.50;1.90;;;3.50;99.90;;;;;;6367306;22;20002;-84
2024/01/31 09:26:22;;;;;;;9.15;2.20;;;3.60;99.90;;;;;;6340154;22;20002;-85
2024/01/31 09:28:48;;;;;;;10.52;2.13;;;3.60;99.90;;;;;;6341174;22;20329;-85
2024/01/31 09:31:26;;;;;;;4.32;1.50;;;3.60;99.90;;;;;;6342936;22;20002;-84
2024/01/31 09:33:54;;;;;;;6.55;1.88;;;3.60;99.90;;;;;;6370694;22;20077;-85
2024/01/31 09:36:20;;;;;;;3.35;1.67;;;3.70;99.90;;;;;;6342066;22;20005;-85
2024/01/31 09:38:49;;;;;;;7.03;2.22;;;3.70;99.90;;;;;;6342002;22;20002;-85
2024/01/31 09:41:16;;;;;;;2.90;1.45;;;3.80;99.90;;;;;;6370450;22;20379;-85
2024/01/31 09:43:45;;;;;;;9.85;1.73;;;3.80;99.90;;;;;;6342513;22;20002;-84
2024/01/31 09:46:12;;;;;;;6.20;2.17;;;3.80;99.90;;;;;;6369605;22;20014;-84
2024/01/31 09:48:39;;;;;;;8.35;2.10;;;3.90;99.90;;;;;;6342179;22;20006;-84
2024/01/31 09:51:06;;;;;;;5.60;1.63;;;3.90;99.90;;;;;;6342121;22;20002;-85
2024/01/31 09:53:33;;;;;;;9.15;1.52;;;4.00;99.90;;;;;;6341491;22;20009;-83
2024/01/31 09:56:00;;;;;;;10.32;2.35;;;4.00;99.90;;;;;;6342071;22;20077;-83
2024/01/31 09:58:26;;;;;;;4.68;1.58;;;4.00;99.90;;;;;;6341763;22;20011;-83
2024/01/31 10:00:52;;;;;;;3.88;1.38;;;4.10;99.90;;;;;;6369441;22;19999;-84
2024/01/31 10:03:18;;;;;;;12.48;2.92;;;4.10;99.90;;;;;;6341935;22;20013;-84
2024/01/31 10:05:44;;;;;;;9.98;2.03;;;4.20;99.90;;;;;;6341698;22;20007;-83
2024/01/31 10:08:10;;;;;;;10.05;2.28;;;4.20;99.90;;;;;;6341639;22;20393;-84
2024/01/31 10:10:37;;;;;;;6.07;1.50;;;4.20;99.90;;;;;;6341508;22;20081;-84
2024/01/31 10:13:03;;;;;;;8.00;2.58;;;4.20;99.90;;;;;;6369753;22;20422;-83
2024/01/31 10:15:29;;;;;;;6.57;1.48;;;4.20;99.90;;;;;;6341363;22;20009;-83
2024/01/31 10:17:55;;;;;;;11.02;2.80;;;4.30;99.90;;;;;;6369844;22;20034;-84
2024/01/31 10:20:21;;;;;;;8.25;2.03;;;4.30;99.90;;;;;;6341862;22;20002;-83
2024/01/31 10:22:46;;;;;;;6.28;1.30;;;4.30;99.90;;;;;;6341219;22;20033;-84
2024/01/31 10:25:16;;;;;;;13.93;3.33;;;4.30;99.90;;;;;;6369936;22;19999;-84
2024/01/31 10:27:51;;;;;;;8.18;1.60;;;4.40;99.90;;;;;;6341984;22;20017;-83
2024/01/31 10:30:17;;;;;;;8.45;1.63;;;4.40;99.90;;;;;;6342155;22;20403;-84
2024/01/31 10:32:47;;;;;;;10.18;2.08;;;4.40;99.90;;;;;;6369943;22;20097;-84
2024/01/31 10:35:14;;;;;;;7.22;1.55;;;4.40;99.90;;;;;;6341720;22;20013;-85
2024/01/31 10:37:39;;;;;;;5.90;1.60;;;4.40;99.90;;;;;;6341456;22;20071;-84
2024/01/31 10:40:09;;;;;;;10.77;1.45;;;4.40;99.90;;;;;;6341846;22;20002;-84
2024/01/31 10:42:35;;;;;;;8.30;1.73;;;4.50;99.90;;;;;;6341249;22;20311;-84
2024/01/31 10:45:02;;;;;;;8.15;1.67;;;4.40;99.90;;;;;;6341360;22;20002;-83
2024/01/31 10:47:28;;;;;;;10.45;1.90;;;4.50;99.90;;;;;;6340832;22;20018;-83
2024/01/31 10:49:54;;;;;;;11.65;2.00;;;4.50;99.90;;;;;;6340998;22;20015;-83
2024/01/31 10:52:22;;;;;;;3.97;1.20;;;4.50;99.90;;;;;;6369239;22;20417;-84
2024/01/31 10:54:58;;;;;;;8.43;1.80;;;4.50;99.90;;;;;;6368987;22;20051;-83
2024/01/31 10:57:24;;;;;;;10.90;1.73;;;4.60;99.90;;;;;;6341116;22;20013;-84
2024/01/31 10:59:50;;;;;;;10.60;1.63;;;4.60;99.90;;;;;;6341859;22;20485;-82
2024/01/31 11:02:16;;;;;;;5.05;2.10;;;4.70;99.90;;;;;;6341324;22;20041;-83
2024/01/31 11:04:43;;;;;;;9.05;1.95;;;4.70;99.90;;;;;;6368988;22;20006;-83
2024/01/31 11:07:21;;;;;;;6.15;1.50;;;4.80;99.90;;;;;;6341237;22;20110;-82
2024/01/31 11:09:47;;;;;;;11.38;1.70;;;4.80;99.90;;;;;;6341327;22;20445;-83
2024/01/31 11:12:17;;;;;;;8.15;1.45;;;4.80;99.90;;;;;;6341422;22;20005;-84
2024/01/31 11:14:47;;;;;;;16.05;2.10;;;4.80;99.90;;;;;;6341338;22;20055;-84
2024/01/31 11:17:23;;;;;;;8.68;1.77;;;4.90;99.90;;;;;;6340790;22;20002;-84
2024/01/31 11:19:55;;;;;;;14.32;4.38;;;4.90;99.90;;;;;;6340996;22;20002;-85
2024/01/31 11:22:21;;;;;;;5.97;1.83;;;4.90;99.90;;;;;;6340821;22;20034;-84
2024/01/31 11:24:55;;;;;;;5.18;1.63;;;4.90;99.90;;;;;;6363341;22;20011;-85
2024/01/31 11:27:21;;;;;;;12.18;2.03;;;4.90;99.90;;;;;;6335440;22;20037;-85
2024/01/31 11:29:50;;;;;;;7.85;2.22;;;4.90;99.90;;;;;;6363930;22;20059;-83
2024/01/31 11:32:17;;;;;;;13.15;2.13;;;5.00;99.90;;;;;;6338030;22;20022;-85
2024/01/31 11:34:43;;;;;;;14.45;2.65;;;5.00;99.90;;;;;;6338656;22;19998;-85
2024/01/31 11:37:10;;;;;;;14.50;2.40;;;5.00;99.90;;;;;;6367818;22;20034;-84
2024/01/31 11:39:35;;;;;;;7.28;2.33;;;5.10;99.90;;;;;;6339247;22;20006;-84
2024/01/31 11:42:01;;;;;;;5.97;1.75;;;5.10;99.90;;;;;;6339861;22;20333;-85
2024/01/31 11:44:30;;;;;;;10.02;2.00;;;5.10;99.90;;;;;;6340285;22;20026;-85
2024/01/31 11:46:56;;;;;;;7.20;1.98;;;5.10;99.90;;;;;;6339473;22;20509;-85
2024/01/31 11:49:25;;;;;;;4.45;1.38;;;5.10;99.90;;;;;;6338440;22;20006;-85
2024/01/31 11:51:51;;;;;;;9.63;2.15;;;5.10;99.90;;;;;;6340466;22;20002;-85
2024/01/31 11:54:17;;;;;;;8.00;2.05;;;5.10;99.90;;;;;;6340278;22;20009;-85
2024/01/31 11:56:43;;;;;;;12.57;2.17;;;5.10;99.90;;;;;;6340458;22;20075;-84
2024/01/31 11:59:09;;;;;;;14.23;2.22;;;5.10;99.90;;;;;;6368277;22;20366;-84
2024/01/31 12:01:35;;;;;;;14.52;2.50;;;5.10;99.90;;;;;;6340844;22;20007;-85
2024/01/31 12:04:04;;;;;;;10.18;2.50;;;5.10;99.90;;;;;;6339913;22;20003;-85
2024/01/31 12:06:30;;;;;;;15.25;2.10;;;5.10;99.90;;;;;;6340750;22;20334;-85
2024/01/31 12:08:56;;;;;;;14.13;3.05;;;5.10;99.90;;;;;;6338458;22;20006;-85
2024/01/31 12:11:22;;;;;;;8.15;3.88;;;5.20;99.90;;;;;;6338185;22;20014;-86
2024/01/31 12:13:47;;;;;;;12.13;2.83;;;5.10;99.90;;;;;;6335753;22;20003;-86
2024/01/31 12:16:13;;;;;;;6.72;2.28;;;5.20;99.90;;;;;;6336021;22;20346;-84
2024/01/31 12:18:42;;;;;;;13.15;2.70;;;5.20;99.90;;;;;;6336957;22;20026;-85
2024/01/31 12:21:10;;;;;;;14.90;3.17;;;5.20;99.90;;;;;;6337075;22;20031;-85
2024/01/31 12:23:37;;;;;;;12.75;3.22;;;5.30;99.90;;;;;;6338075;22;20010;-85
2024/01/31 12:26:02;;;;;;;15.32;2.70;;;5.30;99.90;;;;;;6337615;22;20084;-84
2024/01/31 12:28:28;;;;;;;7.03;2.17;;;5.40;99.90;;;;;;6340124;22;20060;-84
2024/01/31 12:30:56;;;;;;;6.13;2.00;;;5.50;99.90;;;;;;6336765;22;20003;-84
2024/01/31 12:33:22;;;;;;;5.20;1.60;;;5.50;99.90;;;;;;6338232;22;20006;-83
2024/01/31 12:35:49;;;;;;;10.32;2.25;;;5.60;99.90;;;;;;6339698;22;20006;-84
2024/01/31 12:38:15;;;;;;;10.52;2.13;;;5.70;99.90;;;;;;6339983;22;20002;-85
2024/01/31 12:40:40;;;;;;;12.02;2.65;;;5.70;99.90;;;;;;6368484;22;20451;-84
2024/01/31 12:43:06;;;;;;;2.97;1.38;;;5.80;99.90;;;;;;6340440;22;20006;-85
2024/01/31 12:45:35;;;;;;;9.57;2.10;;;5.80;99.90;;;;;;6367820;22;20023;-85
2024/01/31 12:48:01;;;;;;;6.05;1.67;;;5.90;99.90;;;;;;6333749;22;20349;-83